sensor_id;sensor_type;location;lat;lon;timestamp;P1;durP1;ratioP1;P2;durP2;ratioP2
30299;SDS011;17110;52.602;12.998;2023-03-01T00:00:39;6.43;;;5.30;;
30299;SDS011;17110;52.602;12.998;2023-03-01T00:03:04;8.82;;;5.95;;
30299;SDS011;17110;52.602;12.998;2023-03-01T00:05:31;7.05;;;6.00;;
30299;SDS011;17110;52.602;12.998;2023-03-01T00:07:57;8.18;;;6.43;;
30299;SDS011;17110;52.602;12.998;2023-03-01T00:10:22;8.20;;;6.72;;
30299;SDS011;17110;52.602;12.998;2023-03-01T00:12:48;8.45;;;6.63;;
30299;SDS011;17110;52.602;12.998;2023-03-01T00:15:14;9.37;;;6.63;;
30299;SDS011;17110;52.602;12.998;2023-03-01T00:17:39;8.20;;;6.43;;
30299;SDS011;17110;52.602;12.998;2023-03-01T00:20:05;8.10;;;6.50;;
30299;SDS011;17110;52.602;12.998;2023-03-01T00:22:35;10.20;;;7.15;;
30299;SDS011;17110;52.602;12.998;2023-03-01T00:25:01;9.50;;;7.20;;
30299;SDS011;17110;52.602;12.998;2023-03-01T00:27:28;10.65;;;8.52;;
30299;SDS011;17110;52.602;12.998;2023-03-01T00:29:53;10.13;;;8.07;;
30299;SDS011;17110;52.602;12.998;2023-03-01T00:32:19;9.88;;;7.75;;
30299;SDS011;17110;52.602;12.998;2023-03-01T00:34:45;13.45;;;8.40;;
30299;SDS011;17110;52.602;12.998;2023-03-01T00:37:19;9.93;;;8.60;;
30299;SDS011;17110;52.602;12.998;2023-03-01T00:39:48;11.13;;;8.13;;
30299;SDS011;17110;52.602;12.998;2023-03-01T00:42:14;9.95;;;8.13;;
30299;SDS011;17110;52.602;12.998;2023-03-01T00:44:41;12.13;;;7.95;;
30299;SDS011;17110;52.602;12.998;2023-03-01T00:47:07;9.50;;;7.60;;
30299;SDS011;17110;52.602;12.998;2023-03-01T00:49:32;9.50;;;7.40;;
30299;SDS011;17110;52.602;12.998;2023-03-01T00:51:58;10.60;;;7.63;;
30299;SDS011;17110;52.602;12.998;2023-03-01T00:54:24;10.47;;;8.03;;
30299;SDS011;17110;52.602;12.998;2023-03-01T00:56:49;11.10;;;8.37;;
30299;SDS011;17110;52.602;12.998;2023-03-01T00:59:15;12.17;;;9.13;;
30299;SDS011;17110;52.602;12.998;2023-03-01T01:01:41;10.00;;;7.93;;
30299;SDS011;17110;52.602;12.998;2023-03-01T01:04:07;9.70;;;7.67;;
30299;SDS011;17110;52.602;12.998;2023-03-01T01:06:35;10.20;;;7.53;;
30299;SDS011;17110;52.602;12.998;2023-03-01T01:09:03;11.47;;;8.57;;
30299;SDS011;17110;52.602;12.998;2023-03-01T01:11:31;12.85;;;8.43;;
30299;SDS011;17110;52.602;12.998;2023-03-01T01:13:58;9.02;;;7.75;;
30299;SDS011;17110;52.602;12.998;2023-03-01T01:16:24;9.65;;;7.20;;
30299;SDS011;17110;52.602;12.998;2023-03-01T01:18:52;8.50;;;7.15;;
30299;SDS011;17110;52.602;12.998;2023-03-01T01:21:19;8.75;;;7.03;;
30299;SDS011;17110;52.602;12.998;2023-03-01T01:23:46;7.75;;;6.72;;
30299;SDS011;17110;52.602;12.998;2023-03-01T01:26:14;9.93;;;7.30;;
30299;SDS011;17110;52.602;12.998;2023-03-01T01:28:44;8.15;;;6.80;;
30299;SDS011;17110;52.602;12.998;2023-03-01T01:31:11;8.80;;;7.13;;
30299;SDS011;17110;52.602;12.998;2023-03-01T01:33:37;8.40;;;6.60;;
30299;SDS011;17110;52.602;12.998;2023-03-01T01:36:04;9.50;;;7.00;;
30299;SDS011;17110;52.602;12.998;2023-03-01T01:38:30;10.77;;;7.78;;
30299;SDS011;17110;52.602;12.998;2023-03-01T01:40:57;9.38;;;7.22;;
30299;SDS011;17110;52.602;12.998;2023-03-01T01:43:29;10.35;;;8.05;;
30299;SDS011;17110;52.602;12.998;2023-03-01T01:46:01;12.30;;;8.45;;
30299;SDS011;17110;52.602;12.998;2023-03-01T01:48:43;10.50;;;8.10;;
30299;SDS011;17110;52.602;12.998;2023-03-01T01:51:13;8.77;;;7.75;;
30299;SDS011;17110;52.602;12.998;2023-03-01T01:53:45;10.38;;;7.85;;
30299;SDS011;17110;52.602;12.998;2023-03-01T01:56:14;10.77;;;8.20;;
30299;SDS011;17110;52.602;12.998;2023-03-01T01:58:42;9.70;;;7.90;;
30299;SDS011;17110;52.602;12.998;2023-03-01T02:01:09;10.73;;;8.02;;
30299;SDS011;17110;52.602;12.998;2023-03-01T02:03:36;9.45;;;7.70;;
30299;SDS011;17110;52.602;12.998;2023-03-01T02:08:55;10.30;;;8.35;;
30299;SDS011;17110;52.602;12.998;2023-03-01T02:11:25;12.50;;;8.88;;
30299;SDS011;17110;52.602;12.998;2023-03-01T02:13:54;9.82;;;8.07;;
30299;SDS011;17110;52.602;12.998;2023-03-01T02:16:20;10.98;;;8.68;;
30299;SDS011;17110;52.602;12.998;2023-03-01T02:18:46;12.20;;;8.27;;
30299;SDS011;17110;52.602;12.998;2023-03-01T02:23:47;10.90;;;8.23;;
30299;SDS011;17110;52.602;12.998;2023-03-01T02:28:42;9.90;;;8.20;;
30299;SDS011;17110;52.602;12.998;2023-03-01T02:31:09;10.77;;;8.57;;
30299;SDS011;17110;52.602;12.998;2023-03-01T02:33:58;11.30;;;8.50;;
30299;SDS011;17110;52.602;12.998;2023-03-01T02:36:25;10.10;;;8.30;;
30299;SDS011;17110;52.602;12.998;2023-03-01T02:38:55;9.75;;;7.97;;
30299;SDS011;17110;52.602;12.998;2023-03-01T02:41:23;9.18;;;7.70;;
30299;SDS011;17110;52.602;12.998;2023-03-01T02:43:53;10.68;;;8.27;;
30299;SDS011;17110;52.602;12.998;2023-03-01T02:46:23;9.32;;;7.65;;
30299;SDS011;17110;52.602;12.998;2023-03-01T02:48:54;9.65;;;7.88;;
30299;SDS011;17110;52.602;12.998;2023-03-01T02:51:34;10.55;;;8.38;;
30299;SDS011;17110;52.602;12.998;2023-03-01T02:56:48;10.20;;;8.20;;
30299;SDS011;17110;52.602;12.998;2023-03-01T02:59:15;9.48;;;7.65;;
30299;SDS011;17110;52.602;12.998;2023-03-01T03:01:43;10.07;;;7.75;;
30299;SDS011;17110;52.602;12.998;2023-03-01T03:04:11;10.23;;;8.25;;
30299;SDS011;17110;52.602;12.998;2023-03-01T03:06:43;10.73;;;8.33;;
30299;SDS011;17110;52.602;12.998;2023-03-01T03:09:10;9.75;;;7.82;;
30299;SDS011;17110;52.602;12.998;2023-03-01T03:11:37;9.17;;;7.60;;
30299;SDS011;17110;52.602;12.998;2023-03-01T03:14:04;9.52;;;7.75;;
30299;SDS011;17110;52.602;12.998;2023-03-01T03:16:30;11.07;;;8.25;;
30299;SDS011;17110;52.602;12.998;2023-03-01T03:18:56;10.77;;;8.68;;
30299;SDS011;17110;52.602;12.998;2023-03-01T03:21:30;11.85;;;8.15;;
30299;SDS011;17110;52.602;12.998;2023-03-01T03:23:57;10.73;;;8.93;;
30299;SDS011;17110;52.602;12.998;2023-03-01T03:26:22;10.00;;;7.80;;
30299;SDS011;17110;52.602;12.998;2023-03-01T03:28:49;10.03;;;7.60;;
30299;SDS011;17110;52.602;12.998;2023-03-01T03:31:15;10.25;;;8.55;;
30299;SDS011;17110;52.602;12.998;2023-03-01T03:33:41;10.27;;;8.07;;
30299;SDS011;17110;52.602;12.998;2023-03-01T03:36:07;10.48;;;7.47;;
30299;SDS011;17110;52.602;12.998;2023-03-01T03:38:37;9.30;;;8.35;;
30299;SDS011;17110;52.602;12.998;2023-03-01T03:41:07;10.52;;;7.95;;
30299;SDS011;17110;52.602;12.998;2023-03-01T03:43:35;8.80;;;7.63;;
30299;SDS011;17110;52.602;12.998;2023-03-01T03:46:02;9.13;;;8.15;;
30299;SDS011;17110;52.602;12.998;2023-03-01T03:48:35;9.93;;;8.07;;
30299;SDS011;17110;52.602;12.998;2023-03-01T03:51:03;10.20;;;8.10;;
30299;SDS011;17110;52.602;12.998;2023-03-01T03:53:32;8.40;;;7.50;;
30299;SDS011;17110;52.602;12.998;2023-03-01T03:55:58;9.40;;;8.23;;
30299;SDS011;17110;52.602;12.998;2023-03-01T03:58:24;10.23;;;8.20;;
30299;SDS011;17110;52.602;12.998;2023-03-01T04:00:52;9.57;;;8.02;;
30299;SDS011;17110;52.602;12.998;2023-03-01T04:03:21;9.18;;;7.78;;
30299;SDS011;17110;52.602;12.998;2023-03-01T04:05:47;10.30;;;8.10;;
30299;SDS011;17110;52.602;12.998;2023-03-01T04:08:15;10.80;;;8.95;;
30299;SDS011;17110;52.602;12.998;2023-03-01T04:10:45;10.32;;;8.27;;
30299;SDS011;17110;52.602;12.998;2023-03-01T04:13:15;8.82;;;7.10;;
30299;SDS011;17110;52.602;12.998;2023-03-01T04:15:44;10.73;;;8.15;;
30299;SDS011;17110;52.602;12.998;2023-03-01T04:18:14;10.48;;;8.45;;
30299;SDS011;17110;52.602;12.998;2023-03-01T04:20:41;9.50;;;8.38;;
30299;SDS011;17110;52.602;12.998;2023-03-01T04:23:14;10.05;;;8.30;;
30299;SDS011;17110;52.602;12.998;2023-03-01T04:28:18;10.63;;;8.65;;
30299;SDS011;17110;52.602;12.998;2023-03-01T04:30:44;10.93;;;8.60;;
30299;SDS011;17110;52.602;12.998;2023-03-01T04:33:10;9.82;;;8.77;;
30299;SDS011;17110;52.602;12.998;2023-03-01T04:35:36;11.10;;;9.25;;
30299;SDS011;17110;52.602;12.998;2023-03-01T04:38:04;10.40;;;8.68;;
30299;SDS011;17110;52.602;12.998;2023-03-01T04:40:30;10.23;;;8.60;;
30299;SDS011;17110;52.602;12.998;2023-03-01T04:42:56;11.50;;;8.80;;
30299;SDS011;17110;52.602;12.998;2023-03-01T04:45:25;10.83;;;8.80;;
30299;SDS011;17110;52.602;12.998;2023-03-01T04:47:50;11.30;;;8.97;;
30299;SDS011;17110;52.602;12.998;2023-03-01T04:50:19;10.90;;;8.70;;
30299;SDS011;17110;52.602;12.998;2023-03-01T04:52:48;10.43;;;8.52;;
30299;SDS011;17110;52.602;12.998;2023-03-01T04:55:14;11.15;;;9.00;;
30299;SDS011;17110;52.602;12.998;2023-03-01T04:57:40;9.63;;;8.57;;
30299;SDS011;17110;52.602;12.998;2023-03-01T05:00:07;9.90;;;8.90;;
30299;SDS011;17110;52.602;12.998;2023-03-01T05:02:45;11.18;;;9.02;;
30299;SDS011;17110;52.602;12.998;2023-03-01T05:05:18;11.13;;;9.60;;
30299;SDS011;17110;52.602;12.998;2023-03-01T05:07:45;10.52;;;8.93;;
30299;SDS011;17110;52.602;12.998;2023-03-01T05:10:11;10.32;;;9.23;;
30299;SDS011;17110;52.602;12.998;2023-03-01T05:12:36;10.98;;;9.45;;
30299;SDS011;17110;52.602;12.998;2023-03-01T05:15:02;12.95;;;10.48;;
30299;SDS011;17110;52.602;12.998;2023-03-01T05:17:32;12.90;;;10.18;;
30299;SDS011;17110;52.602;12.998;2023-03-01T05:19:59;11.55;;;9.80;;
30299;SDS011;17110;52.602;12.998;2023-03-01T05:22:25;10.07;;;8.98;;
30299;SDS011;17110;52.602;12.998;2023-03-01T05:24:51;12.57;;;9.60;;
30299;SDS011;17110;52.602;12.998;2023-03-01T05:27:19;11.27;;;9.65;;
30299;SDS011;17110;52.602;12.998;2023-03-01T05:29:47;12.70;;;9.43;;
30299;SDS011;17110;52.602;12.998;2023-03-01T05:32:13;10.27;;;9.00;;
30299;SDS011;17110;52.602;12.998;2023-03-01T05:34:40;12.40;;;9.82;;
30299;SDS011;17110;52.602;12.998;2023-03-01T05:37:07;11.43;;;9.90;;
30299;SDS011;17110;52.602;12.998;2023-03-01T05:39:33;11.10;;;9.02;;
30299;SDS011;17110;52.602;12.998;2023-03-01T05:41:59;15.15;;;11.85;;
30299;SDS011;17110;52.602;12.998;2023-03-01T05:44:29;14.27;;;11.40;;
30299;SDS011;17110;52.602;12.998;2023-03-01T05:46:55;13.80;;;11.27;;
30299;SDS011;17110;52.602;12.998;2023-03-01T05:49:21;13.15;;;10.38;;
30299;SDS011;17110;52.602;12.998;2023-03-01T05:51:49;13.02;;;10.23;;
30299;SDS011;17110;52.602;12.998;2023-03-01T05:54:16;12.52;;;10.27;;
30299;SDS011;17110;52.602;12.998;2023-03-01T05:56:43;12.00;;;10.02;;
30299;SDS011;17110;52.602;12.998;2023-03-01T05:59:09;11.27;;;9.80;;
30299;SDS011;17110;52.602;12.998;2023-03-01T06:01:36;12.07;;;9.75;;
30299;SDS011;17110;52.602;12.998;2023-03-01T06:04:03;11.07;;;9.50;;
30299;SDS011;17110;52.602;12.998;2023-03-01T06:06:29;12.68;;;9.85;;
30299;SDS011;17110;52.602;12.998;2023-03-01T06:08:58;11.90;;;9.98;;
30299;SDS011;17110;52.602;12.998;2023-03-01T06:11:24;10.57;;;9.48;;
30299;SDS011;17110;52.602;12.998;2023-03-01T06:13:50;11.45;;;10.07;;
30299;SDS011;17110;52.602;12.998;2023-03-01T06:16:15;13.43;;;11.20;;
30299;SDS011;17110;52.602;12.998;2023-03-01T06:18:41;13.10;;;11.37;;
30299;SDS011;17110;52.602;12.998;2023-03-01T06:21:07;13.57;;;11.13;;
30299;SDS011;17110;52.602;12.998;2023-03-01T06:23:33;15.55;;;12.88;;
30299;SDS011;17110;52.602;12.998;2023-03-01T06:26:00;17.25;;;13.55;;
30299;SDS011;17110;52.602;12.998;2023-03-01T06:28:29;16.90;;;13.63;;
30299;SDS011;17110;52.602;12.998;2023-03-01T06:30:55;15.20;;;12.93;;
30299;SDS011;17110;52.602;12.998;2023-03-01T06:33:21;17.25;;;14.45;;
30299;SDS011;17110;52.602;12.998;2023-03-01T06:35:49;17.98;;;16.08;;
30299;SDS011;17110;52.602;12.998;2023-03-01T06:38:15;15.90;;;14.18;;
30299;SDS011;17110;52.602;12.998;2023-03-01T06:40:44;17.17;;;15.33;;
30299;SDS011;17110;52.602;12.998;2023-03-01T06:43:09;21.33;;;16.13;;
30299;SDS011;17110;52.602;12.998;2023-03-01T06:45:36;22.48;;;16.67;;
30299;SDS011;17110;52.602;12.998;2023-03-01T06:48:05;19.20;;;14.90;;
30299;SDS011;17110;52.602;12.998;2023-03-01T06:50:32;16.33;;;14.55;;
30299;SDS011;17110;52.602;12.998;2023-03-01T06:52:59;22.85;;;13.85;;
30299;SDS011;17110;52.602;12.998;2023-03-01T06:55:28;16.13;;;13.00;;
30299;SDS011;17110;52.602;12.998;2023-03-01T06:57:54;16.88;;;14.63;;
30299;SDS011;17110;52.602;12.998;2023-03-01T07:00:21;17.83;;;14.23;;
30299;SDS011;17110;52.602;12.998;2023-03-01T07:02:47;17.83;;;15.98;;
30299;SDS011;17110;52.602;12.998;2023-03-01T07:05:13;15.97;;;14.27;;
30299;SDS011;17110;52.602;12.998;2023-03-01T07:07:38;15.93;;;12.80;;
30299;SDS011;17110;52.602;12.998;2023-03-01T07:10:04;15.93;;;13.63;;
30299;SDS011;17110;52.602;12.998;2023-03-01T07:12:37;17.08;;;14.75;;
30299;SDS011;17110;52.602;12.998;2023-03-01T07:15:04;15.27;;;13.55;;
30299;SDS011;17110;52.602;12.998;2023-03-01T07:17:30;17.80;;;14.83;;
30299;SDS011;17110;52.602;12.998;2023-03-01T07:19:56;15.67;;;13.33;;
30299;SDS011;17110;52.602;12.998;2023-03-01T07:22:22;16.13;;;13.60;;
30299;SDS011;17110;52.602;12.998;2023-03-01T07:24:48;16.73;;;14.00;;
30299;SDS011;17110;52.602;12.998;2023-03-01T07:27:13;17.53;;;14.47;;
30299;SDS011;17110;52.602;12.998;2023-03-01T07:29:39;18.23;;;14.97;;
30299;SDS011;17110;52.602;12.998;2023-03-01T07:32:05;18.43;;;14.90;;
30299;SDS011;17110;52.602;12.998;2023-03-01T07:34:31;15.38;;;13.70;;
30299;SDS011;17110;52.602;12.998;2023-03-01T07:36:57;22.23;;;15.25;;
30299;SDS011;17110;52.602;12.998;2023-03-01T07:39:23;18.20;;;14.17;;
30299;SDS011;17110;52.602;12.998;2023-03-01T07:41:49;17.73;;;14.53;;
30299;SDS011;17110;52.602;12.998;2023-03-01T07:44:15;15.73;;;13.20;;
30299;SDS011;17110;52.602;12.998;2023-03-01T07:46:42;17.45;;;13.20;;
30299;SDS011;17110;52.602;12.998;2023-03-01T07:49:08;16.63;;;12.65;;
30299;SDS011;17110;52.602;12.998;2023-03-01T07:51:34;14.93;;;12.60;;
30299;SDS011;17110;52.602;12.998;2023-03-01T07:53:59;15.23;;;12.50;;
30299;SDS011;17110;52.602;12.998;2023-03-01T07:56:25;14.70;;;11.23;;
30299;SDS011;17110;52.602;12.998;2023-03-01T07:58:54;14.82;;;10.90;;
30299;SDS011;17110;52.602;12.998;2023-03-01T08:01:24;13.85;;;11.07;;
30299;SDS011;17110;52.602;12.998;2023-03-01T08:03:49;12.02;;;10.25;;
30299;SDS011;17110;52.602;12.998;2023-03-01T08:06:16;13.37;;;9.97;;
30299;SDS011;17110;52.602;12.998;2023-03-01T08:08:43;11.82;;;9.70;;
30299;SDS011;17110;52.602;12.998;2023-03-01T08:11:11;10.63;;;9.43;;
30299;SDS011;17110;52.602;12.998;2023-03-01T08:13:38;10.35;;;8.93;;
30299;SDS011;17110;52.602;12.998;2023-03-01T08:16:05;11.00;;;8.90;;
30299;SDS011;17110;52.602;12.998;2023-03-01T08:18:32;10.50;;;8.88;;
30299;SDS011;17110;52.602;12.998;2023-03-01T08:21:05;11.25;;;8.80;;
30299;SDS011;17110;52.602;12.998;2023-03-01T08:23:35;10.10;;;8.23;;
30299;SDS011;17110;52.602;12.998;2023-03-01T08:26:05;11.25;;;8.82;;
30299;SDS011;17110;52.602;12.998;2023-03-01T08:28:36;9.32;;;8.40;;
30299;SDS011;17110;52.602;12.998;2023-03-01T08:31:03;11.25;;;8.88;;
30299;SDS011;17110;52.602;12.998;2023-03-01T08:33:37;10.02;;;8.13;;
30299;SDS011;17110;52.602;12.998;2023-03-01T08:36:04;11.27;;;8.60;;
30299;SDS011;17110;52.602;12.998;2023-03-01T08:38:32;10.75;;;9.27;;
30299;SDS011;17110;52.602;12.998;2023-03-01T08:41:01;9.63;;;8.03;;
30299;SDS011;17110;52.602;12.998;2023-03-01T08:43:28;9.63;;;7.90;;
30299;SDS011;17110;52.602;12.998;2023-03-01T08:45:55;8.63;;;7.40;;
30299;SDS011;17110;52.602;12.998;2023-03-01T08:48:21;8.98;;;6.93;;
30299;SDS011;17110;52.602;12.998;2023-03-01T08:50:47;8.25;;;6.85;;
30299;SDS011;17110;52.602;12.998;2023-03-01T08:53:12;8.20;;;7.10;;
30299;SDS011;17110;52.602;12.998;2023-03-01T08:55:38;9.80;;;7.43;;
30299;SDS011;17110;52.602;12.998;2023-03-01T08:58:04;10.45;;;7.38;;
30299;SDS011;17110;52.602;12.998;2023-03-01T09:00:29;8.57;;;7.13;;
30299;SDS011;17110;52.602;12.998;2023-03-01T09:02:55;10.03;;;7.13;;
30299;SDS011;17110;52.602;12.998;2023-03-01T09:05:20;9.98;;;7.65;;
30299;SDS011;17110;52.602;12.998;2023-03-01T09:07:46;8.47;;;7.40;;
30299;SDS011;17110;52.602;12.998;2023-03-01T09:10:12;9.37;;;7.40;;
30299;SDS011;17110;52.602;12.998;2023-03-01T09:12:37;10.40;;;7.13;;
30299;SDS011;17110;52.602;12.998;2023-03-01T09:15:03;8.93;;;7.20;;
30299;SDS011;17110;52.602;12.998;2023-03-01T09:17:30;9.35;;;7.28;;
30299;SDS011;17110;52.602;12.998;2023-03-01T09:19:55;10.65;;;6.85;;
30299;SDS011;17110;52.602;12.998;2023-03-01T09:22:21;10.23;;;7.57;;
30299;SDS011;17110;52.602;12.998;2023-03-01T09:24:47;10.70;;;7.90;;
30299;SDS011;17110;52.602;12.998;2023-03-01T09:27:12;9.38;;;7.30;;
30299;SDS011;17110;52.602;12.998;2023-03-01T09:29:39;8.23;;;6.38;;
30299;SDS011;17110;52.602;12.998;2023-03-01T09:32:05;8.68;;;6.50;;
30299;SDS011;17110;52.602;12.998;2023-03-01T09:34:33;10.95;;;6.82;;
30299;SDS011;17110;52.602;12.998;2023-03-01T09:37:18;8.98;;;6.15;;
30299;SDS011;17110;52.602;12.998;2023-03-01T09:39:44;8.97;;;6.17;;
30299;SDS011;17110;52.602;12.998;2023-03-01T09:42:10;8.13;;;5.72;;
30299;SDS011;17110;52.602;12.998;2023-03-01T09:47:05;8.45;;;6.07;;
30299;SDS011;17110;52.602;12.998;2023-03-01T09:49:39;7.05;;;5.40;;
30299;SDS011;17110;52.602;12.998;2023-03-01T09:52:29;8.10;;;5.40;;
30299;SDS011;17110;52.602;12.998;2023-03-01T09:55:01;7.40;;;5.03;;
30299;SDS011;17110;52.602;12.998;2023-03-01T09:58:14;7.68;;;5.50;;
30299;SDS011;17110;52.602;12.998;2023-03-01T10:00:47;6.90;;;5.00;;
30299;SDS011;17110;52.602;12.998;2023-03-01T10:03:22;6.60;;;4.93;;
30299;SDS011;17110;52.602;12.998;2023-03-01T10:06:14;6.45;;;4.95;;
30299;SDS011;17110;52.602;12.998;2023-03-01T10:13:55;6.85;;;4.82;;
30299;SDS011;17110;52.602;12.998;2023-03-01T10:19:21;5.43;;;3.55;;
30299;SDS011;17110;52.602;12.998;2023-03-01T10:21:52;5.35;;;3.08;;
30299;SDS011;17110;52.602;12.998;2023-03-01T10:24:19;4.53;;;2.80;;
30299;SDS011;17110;52.602;12.998;2023-03-01T10:27:01;4.55;;;3.10;;
30299;SDS011;17110;52.602;12.998;2023-03-01T10:32:13;3.80;;;3.13;;
30299;SDS011;17110;52.602;12.998;2023-03-01T10:34:39;5.32;;;3.15;;
30299;SDS011;17110;52.602;12.998;2023-03-01T10:37:13;3.88;;;3.28;;
30299;SDS011;17110;52.602;12.998;2023-03-01T10:42:35;4.93;;;3.60;;
30299;SDS011;17110;52.602;12.998;2023-03-01T10:50:30;5.55;;;3.60;;
30299;SDS011;17110;52.602;12.998;2023-03-01T10:52:57;4.30;;;3.78;;
30299;SDS011;17110;52.602;12.998;2023-03-01T10:55:35;5.25;;;3.75;;
30299;SDS011;17110;52.602;12.998;2023-03-01T10:58:07;4.83;;;3.53;;
30299;SDS011;17110;52.602;12.998;2023-03-01T11:00:54;5.03;;;3.37;;
30299;SDS011;17110;52.602;12.998;2023-03-01T11:03:32;4.38;;;3.30;;
30299;SDS011;17110;52.602;12.998;2023-03-01T11:06:20;5.07;;;3.20;;
30299;SDS011;17110;52.602;12.998;2023-03-01T11:08:47;4.57;;;2.92;;
30299;SDS011;17110;52.602;12.998;2023-03-01T11:11:20;4.40;;;3.20;;
30299;SDS011;17110;52.602;12.998;2023-03-01T11:21:34;6.10;;;3.58;;
30299;SDS011;17110;52.602;12.998;2023-03-01T11:24:03;3.55;;;2.85;;
30299;SDS011;17110;52.602;12.998;2023-03-01T11:26:31;11.77;;;3.50;;
30299;SDS011;17110;52.602;12.998;2023-03-01T11:29:03;3.95;;;3.00;;
30299;SDS011;17110;52.602;12.998;2023-03-01T11:31:32;4.40;;;3.03;;
30299;SDS011;17110;52.602;12.998;2023-03-01T11:36:48;4.27;;;3.17;;
30299;SDS011;17110;52.602;12.998;2023-03-01T11:39:27;4.05;;;3.25;;
30299;SDS011;17110;52.602;12.998;2023-03-01T11:42:04;4.18;;;3.38;;
30299;SDS011;17110;52.602;12.998;2023-03-01T11:44:36;3.40;;;2.85;;
30299;SDS011;17110;52.602;12.998;2023-03-01T11:47:10;5.43;;;3.28;;
30299;SDS011;17110;52.602;12.998;2023-03-01T11:55:24;4.07;;;3.17;;
30299;SDS011;17110;52.602;12.998;2023-03-01T12:03:29;4.03;;;3.10;;
30299;SDS011;17110;52.602;12.998;2023-03-01T12:06:26;4.27;;;3.10;;
30299;SDS011;17110;52.602;12.998;2023-03-01T12:12:48;4.50;;;3.00;;
30299;SDS011;17110;52.602;12.998;2023-03-01T12:17:37;6.20;;;3.33;;
30299;SDS011;17110;52.602;12.998;2023-03-01T12:20:24;4.70;;;3.13;;
30299;SDS011;17110;52.602;12.998;2023-03-01T12:29:07;4.40;;;3.10;;
30299;SDS011;17110;52.602;12.998;2023-03-01T12:35:00;3.95;;;2.80;;
30299;SDS011;17110;52.602;12.998;2023-03-01T12:40:22;4.60;;;2.70;;
30299;SDS011;17110;52.602;12.998;2023-03-01T14:46:21;3.92;;;2.63;;
30299;SDS011;17110;52.602;12.998;2023-03-01T14:49:10;3.60;;;2.42;;
30299;SDS011;17110;52.602;12.998;2023-03-01T14:51:51;3.53;;;2.50;;
30299;SDS011;17110;52.602;12.998;2023-03-01T14:54:25;3.97;;;2.83;;
30299;SDS011;17110;52.602;12.998;2023-03-01T14:56:58;4.47;;;2.47;;
30299;SDS011;17110;52.602;12.998;2023-03-01T14:59:25;4.22;;;2.85;;
30299;SDS011;17110;52.602;12.998;2023-03-01T15:01:53;3.95;;;2.67;;
30299;SDS011;17110;52.602;12.998;2023-03-01T15:04:22;4.05;;;2.58;;
30299;SDS011;17110;52.602;12.998;2023-03-01T15:06:53;3.38;;;2.45;;
30299;SDS011;17110;52.602;12.998;2023-03-01T15:09:20;3.42;;;2.88;;
30299;SDS011;17110;52.602;12.998;2023-03-01T15:11:46;3.28;;;2.45;;
30299;SDS011;17110;52.602;12.998;2023-03-01T15:14:28;5.45;;;2.60;;
30299;SDS011;17110;52.602;12.998;2023-03-01T15:17:23;3.07;;;2.50;;
30299;SDS011;17110;52.602;12.998;2023-03-01T15:19:52;3.35;;;2.83;;
30299;SDS011;17110;52.602;12.998;2023-03-01T15:22:18;3.80;;;2.78;;
30299;SDS011;17110;52.602;12.998;2023-03-01T15:24:49;3.92;;;2.90;;
30299;SDS011;17110;52.602;12.998;2023-03-01T15:27:16;4.05;;;3.00;;
30299;SDS011;17110;52.602;12.998;2023-03-01T15:30:02;4.65;;;2.63;;
30299;SDS011;17110;52.602;12.998;2023-03-01T15:32:30;4.57;;;2.90;;
30299;SDS011;17110;52.602;12.998;2023-03-01T15:35:32;7.55;;;3.20;;
30299;SDS011;17110;52.602;12.998;2023-03-01T15:41:05;5.22;;;3.35;;
30299;SDS011;17110;52.602;12.998;2023-03-01T15:43:47;5.63;;;3.15;;
30299;SDS011;17110;52.602;12.998;2023-03-01T15:46:25;5.85;;;3.78;;
30299;SDS011;17110;52.602;12.998;2023-03-01T15:49:00;4.32;;;3.50;;
30299;SDS011;17110;52.602;12.998;2023-03-01T15:51:30;4.18;;;3.58;;
30299;SDS011;17110;52.602;12.998;2023-03-01T15:53:57;6.65;;;3.63;;
30299;SDS011;17110;52.602;12.998;2023-03-01T15:56:24;7.88;;;3.63;;
30299;SDS011;17110;52.602;12.998;2023-03-01T15:58:50;6.35;;;3.70;;
30299;SDS011;17110;52.602;12.998;2023-03-01T16:01:17;5.78;;;3.58;;
30299;SDS011;17110;52.602;12.998;2023-03-01T16:03:44;5.38;;;3.90;;
30299;SDS011;17110;52.602;12.998;2023-03-01T16:06:10;6.55;;;4.30;;
30299;SDS011;17110;52.602;12.998;2023-03-01T16:08:39;4.28;;;3.78;;
30299;SDS011;17110;52.602;12.998;2023-03-01T16:11:09;5.95;;;4.60;;
30299;SDS011;17110;52.602;12.998;2023-03-01T16:13:39;4.90;;;4.03;;
30299;SDS011;17110;52.602;12.998;2023-03-01T16:16:04;5.88;;;4.13;;
30299;SDS011;17110;52.602;12.998;2023-03-01T16:18:30;5.20;;;4.20;;
30299;SDS011;17110;52.602;12.998;2023-03-01T16:20:56;6.13;;;4.07;;
30299;SDS011;17110;52.602;12.998;2023-03-01T16:23:21;6.23;;;4.37;;
30299;SDS011;17110;52.602;12.998;2023-03-01T16:25:50;4.95;;;3.83;;
30299;SDS011;17110;52.602;12.998;2023-03-01T16:28:22;5.72;;;3.88;;
30299;SDS011;17110;52.602;12.998;2023-03-01T16:30:47;4.17;;;3.03;;
30299;SDS011;17110;52.602;12.998;2023-03-01T16:33:14;6.95;;;3.67;;
30299;SDS011;17110;52.602;12.998;2023-03-01T16:35:39;5.07;;;3.20;;
30299;SDS011;17110;52.602;12.998;2023-03-01T16:38:05;4.50;;;3.10;;
30299;SDS011;17110;52.602;12.998;2023-03-01T16:40:31;5.03;;;3.20;;
30299;SDS011;17110;52.602;12.998;2023-03-01T16:42:58;4.60;;;3.17;;
30299;SDS011;17110;52.602;12.998;2023-03-01T16:45:27;4.20;;;3.15;;
30299;SDS011;17110;52.602;12.998;2023-03-01T16:47:57;4.10;;;3.00;;
30299;SDS011;17110;52.602;12.998;2023-03-01T16:50:23;6.10;;;3.60;;
30299;SDS011;17110;52.602;12.998;2023-03-01T16:52:49;5.15;;;3.22;;
30299;SDS011;17110;52.602;12.998;2023-03-01T16:55:16;18.98;;;4.60;;
30299;SDS011;17110;52.602;12.998;2023-03-01T16:57:41;9.93;;;4.28;;
30299;SDS011;17110;52.602;12.998;2023-03-01T17:00:07;7.03;;;3.80;;
30299;SDS011;17110;52.602;12.998;2023-03-01T17:02:34;6.30;;;4.10;;
30299;SDS011;17110;52.602;12.998;2023-03-01T17:05:00;7.10;;;3.63;;
30299;SDS011;17110;52.602;12.998;2023-03-01T17:07:27;6.20;;;3.28;;
30299;SDS011;17110;52.602;12.998;2023-03-01T17:10:01;4.87;;;3.77;;
30299;SDS011;17110;52.602;12.998;2023-03-01T17:12:28;6.88;;;5.00;;
30299;SDS011;17110;52.602;12.998;2023-03-01T17:14:54;6.70;;;3.50;;
30299;SDS011;17110;52.602;12.998;2023-03-01T17:17:20;5.67;;;3.60;;
30299;SDS011;17110;52.602;12.998;2023-03-01T17:19:46;4.22;;;2.80;;
30299;SDS011;17110;52.602;12.998;2023-03-01T17:22:12;4.93;;;2.80;;
30299;SDS011;17110;52.602;12.998;2023-03-01T17:24:39;5.95;;;3.03;;
30299;SDS011;17110;52.602;12.998;2023-03-01T17:27:06;4.00;;;2.75;;
30299;SDS011;17110;52.602;12.998;2023-03-01T17:29:32;4.20;;;2.83;;
30299;SDS011;17110;52.602;12.998;2023-03-01T17:31:59;4.53;;;2.75;;
30299;SDS011;17110;52.602;12.998;2023-03-01T17:34:25;3.22;;;2.78;;
30299;SDS011;17110;52.602;12.998;2023-03-01T17:36:51;6.00;;;3.03;;
30299;SDS011;17110;52.602;12.998;2023-03-01T17:39:18;6.38;;;4.32;;
30299;SDS011;17110;52.602;12.998;2023-03-01T17:41:50;8.88;;;5.80;;
30299;SDS011;17110;52.602;12.998;2023-03-01T17:44:19;8.73;;;5.10;;
30299;SDS011;17110;52.602;12.998;2023-03-01T17:46:45;11.13;;;4.63;;
30299;SDS011;17110;52.602;12.998;2023-03-01T17:49:11;10.10;;;4.20;;
30299;SDS011;17110;52.602;12.998;2023-03-01T17:51:37;9.10;;;4.75;;
30299;SDS011;17110;52.602;12.998;2023-03-01T17:54:03;8.67;;;4.10;;
30299;SDS011;17110;52.602;12.998;2023-03-01T17:56:29;8.68;;;4.57;;